Togo, Minnesota
Current Conditions -  °F | °C
As of 12:54 AM on Thursday 23 Oct 2014 (Local Time) from KCQM Reporting Station
Overcast Overcast  
Wind Chill: 52°   Ceiling: 5500
Heat Index: 52°   Visibility: 10mi
Dew Point: 37°   Wind: 8mph
Humidity: 58%   Direction: 180°S
Pressure: 29.96"   Gusts: NA
Location:  47.8142°N, 92.9861°W
Report Text: KCQM 230554Z AUTO 18007KT 10SM SCT048 BKN055 OVC070 11/03 A2996 RMK AO2
Loading
Personal Weather Stations






























Interactive Weather Map
Tropical Storm Tracking
New forecast layout! Learn more

10-Day Weather Forecast

Advertisements
Track Severe Weather on mobile